Time;durP1;ratioP1;P1;durP2;ratioP2;P2;SDS_P1;SDS_P2;PMS_P1;PMS_P2;Temp;Humidity;BMP_temperature;BMP_pressure;BME280_temperature;BME280_humidity;BME280_pressure;Samples;Min_cycle;Max_cycle;Signal;HPM_P1;HPM_P2
2022/10/31 00:02:11;;;;;;;2.47;2.08;;;8.60;99.90;;;;;;4967941;28;20045;-75
2022/10/31 00:04:36;;;;;;;1.77;1.67;;;8.60;99.90;;;;;;4968464;28;20471;-75
2022/10/31 00:07:02;;;;;;;3.60;2.13;;;8.50;99.90;;;;;;4967935;28;20031;-75
2022/10/31 00:09:28;;;;;;;3.60;1.83;;;8.50;99.90;;;;;;4982630;28;20030;-76
2022/10/31 00:11:53;;;;;;;4.50;1.33;;;8.50;99.90;;;;;;4967664;28;20042;-75
2022/10/31 00:14:19;;;;;;;2.45;1.10;;;8.60;99.90;;;;;;4967397;28;20031;-74
2022/10/31 00:16:45;;;;;;;4.00;2.25;;;8.50;99.90;;;;;;4967776;28;20031;-75
2022/10/31 00:19:10;;;;;;;4.25;1.42;;;8.50;99.90;;;;;;4969819;28;20031;-77
2022/10/31 00:21:36;;;;;;;2.17;1.83;;;8.50;99.90;;;;;;4984166;28;20143;-78
2022/10/31 00:24:02;;;;;;;4.93;1.70;;;8.50;99.90;;;;;;4970045;28;20045;-77
2022/10/31 00:26:30;;;;;;;4.07;1.65;;;8.40;99.90;;;;;;4969904;28;20023;-79
2022/10/31 00:28:56;;;;;;;8.60;2.50;;;8.40;99.90;;;;;;4969195;28;20030;-77
2022/10/31 00:31:22;;;;;;;3.22;2.35;;;8.40;99.90;;;;;;4982540;28;20440;-76
2022/10/31 00:33:47;;;;;;;4.22;2.03;;;8.40;99.90;;;;;;4967385;28;20019;-76
2022/10/31 00:36:16;;;;;;;3.13;1.98;;;8.50;99.90;;;;;;4968162;28;20066;-76
2022/10/31 00:38:43;;;;;;;7.38;1.98;;;8.50;99.90;;;;;;4967419;28;20070;-77
2022/10/31 00:41:15;;;;;;;6.60;1.42;;;8.50;99.90;;;;;;4967616;28;20035;-77
2022/10/31 00:43:41;;;;;;;1.88;1.55;;;8.40;99.90;;;;;;4967744;28;20046;-77
2022/10/31 00:46:06;;;;;;;3.78;1.70;;;8.40;99.90;;;;;;4967583;28;20427;-76
2022/10/31 00:48:32;;;;;;;5.20;2.40;;;8.40;99.90;;;;;;4967418;28;20027;-77
2022/10/31 00:50:58;;;;;;;2.65;1.70;;;8.60;99.90;;;;;;4967865;28;20023;-77
2022/10/31 00:53:24;;;;;;;2.60;1.63;;;8.50;99.90;;;;;;4966062;28;20029;-76
2022/10/31 00:55:50;;;;;;;3.10;1.67;;;8.60;99.90;;;;;;4967465;28;20077;-77
2022/10/31 00:58:15;;;;;;;1.77;1.67;;;8.60;99.90;;;;;;4972993;28;20522;-75
2022/10/31 01:00:44;;;;;;;4.75;1.48;;;8.60;99.90;;;;;;4987028;28;20034;-76
2022/10/31 01:03:10;;;;;;;1.92;1.45;;;8.60;99.90;;;;;;4986567;28;20030;-77
2022/10/31 01:05:36;;;;;;;1.58;1.25;;;8.60;99.90;;;;;;4986641;28;20037;-77
2022/10/31 01:08:01;;;;;;;1.90;1.50;;;8.50;99.90;;;;;;4989159;28;20093;-77
2022/10/31 01:10:27;;;;;;;1.27;1.17;;;8.40;99.90;;;;;;4990343;28;20034;-75
2022/10/31 01:12:53;;;;;;;1.52;1.08;;;8.30;99.90;;;;;;4990395;28;20041;-77
2022/10/31 01:15:21;;;;;;;1.20;1.10;;;8.30;99.90;;;;;;4989832;28;20033;-76
2022/10/31 01:17:47;;;;;;;3.10;2.80;;;8.20;99.90;;;;;;4988657;28;20030;-76
2022/10/31 01:20:15;;;;;;;2.58;1.55;;;8.20;99.90;;;;;;4990129;28;20037;-77
2022/10/31 01:22:40;;;;;;;1.70;1.60;;;8.20;99.90;;;;;;4990787;28;20519;-77
2022/10/31 01:25:08;;;;;;;1.52;1.40;;;;;;;;;;4991114;28;20023;-77
2022/10/31 01:27:36;;;;;;;3.00;1.65;;;8.30;99.90;;;;;;4989828;28;20020;-77
2022/10/31 01:30:03;;;;;;;2.35;1.10;;;8.20;99.90;;;;;;4989881;28;20030;-76
2022/10/31 01:32:29;;;;;;;2.40;1.30;;;8.20;99.90;;;;;;4988069;28;20423;-75
2022/10/31 01:34:55;;;;;;;2.38;1.70;;;8.20;99.90;;;;;;4988951;28;20104;-77
2022/10/31 01:37:21;;;;;;;2.53;1.65;;;;;;;;;;4988038;28;20033;-76
2022/10/31 01:39:48;;;;;;;3.28;1.73;;;8.30;99.90;;;;;;4988194;28;20414;-76
2022/10/31 01:42:20;;;;;;;2.65;1.83;;;8.40;99.90;;;;;;4988215;28;20026;-76
2022/10/31 01:44:45;;;;;;;15.80;2.17;;;8.50;99.90;;;;;;4986816;28;20389;-75
2022/10/31 01:47:19;;;;;;;3.65;1.83;;;8.50;99.90;;;;;;4988973;28;20018;-77
2022/10/31 01:49:59;;;;;;;1.95;1.23;;;8.50;99.90;;;;;;4989966;28;20022;-77
2022/10/31 01:52:27;;;;;;;1.85;1.58;;;;;;;;;;4990065;28;20042;-76
2022/10/31 01:55:02;;;;;;;7.28;1.52;;;8.40;99.90;;;;;;4989790;28;20374;-75
2022/10/31 01:57:30;;;;;;;11.02;1.40;;;8.40;99.90;;;;;;4989589;28;20422;-76
2022/10/31 02:00:01;;;;;;;1.27;1.15;;;8.30;99.90;;;;;;4970354;28;20053;-76
2022/10/31 02:02:29;;;;;;;2.90;1.15;;;8.20;99.90;;;;;;4969902;28;20098;-76
2022/10/31 02:04:57;;;;;;;2.03;1.60;;;8.10;99.90;;;;;;4970324;28;20512;-76
2022/10/31 02:07:44;;;;;;;2.22;1.67;;;8.20;99.90;;;;;;4969847;28;20102;-77
2022/10/31 02:10:12;;;;;;;3.03;2.17;;;8.30;99.90;;;;;;4968510;28;20031;-77
2022/10/31 02:12:39;;;;;;;1.52;1.30;;;8.50;99.90;;;;;;4969735;28;20145;-76
2022/10/31 02:15:05;;;;;;;3.05;2.40;;;8.50;99.90;;;;;;4969975;28;20030;-76
2022/10/31 02:17:32;;;;;;;1.90;1.75;;;8.40;99.90;;;;;;4968823;28;20633;-76
2022/10/31 02:20:10;;;;;;;4.00;1.35;;;8.50;99.90;;;;;;4970005;28;20039;-76
2022/10/31 02:23:05;;;;;;;6.57;2.45;;;8.40;99.90;;;;;;4968045;28;20073;-76
2022/10/31 02:25:36;;;;;;;12.13;1.92;;;8.50;99.90;;;;;;4969450;28;20545;-76
2022/10/31 02:28:40;;;;;;;3.15;1.90;;;8.50;99.90;;;;;;4969479;28;20023;-75
2022/10/31 02:31:53;;;;;;;1.52;1.42;;;8.60;99.90;;;;;;4969180;28;20026;-77
2022/10/31 02:34:45;;;;;;;1.75;1.60;;;8.50;99.90;;;;;;4909105;29;20526;-76
2022/10/31 02:37:51;;;;;;;3.22;1.20;;;8.50;99.90;;;;;;4966668;28;20046;-76
2022/10/31 02:40:49;;;;;;;2.10;1.40;;;8.30;99.90;;;;;;4952965;28;20496;-77
2022/10/31 02:43:43;;;;;;;1.35;0.90;;;8.30;99.90;;;;;;4970881;28;20078;-77
2022/10/31 02:46:25;;;;;;;6.22;1.65;;;8.30;99.90;;;;;;4940697;28;20071;-77
2022/10/31 02:48:56;;;;;;;3.47;2.05;;;8.20;99.90;;;;;;4968831;28;20049;-77
2022/10/31 02:51:22;;;;;;;4.03;1.73;;;8.30;99.90;;;;;;4968997;28;20031;-76
2022/10/31 02:53:48;;;;;;;2.35;2.10;;;8.50;99.90;;;;;;4968758;28;20022;-77
2022/10/31 02:56:17;;;;;;;2.65;1.92;;;8.60;99.90;;;;;;4968558;28;20029;-77
2022/10/31 02:58:55;;;;;;;5.95;2.00;;;8.60;99.90;;;;;;4977869;28;20038;-76
2022/10/31 03:01:23;;;;;;;4.38;2.28;;;8.70;99.90;;;;;;4987912;28;20207;-76
2022/10/31 03:04:12;;;;;;;2.88;1.90;;;8.80;99.90;;;;;;4988086;28;20026;-77
2022/10/31 03:07:03;;;;;;;1.45;0.88;;;8.90;99.90;;;;;;4981436;28;20041;-76
2022/10/31 03:09:55;;;;;;;10.90;1.98;;;8.80;99.90;;;;;;4987560;28;20058;-76
2022/10/31 03:12:31;;;;;;;1.52;1.02;;;8.70;99.90;;;;;;4987641;28;20457;-76
2022/10/31 03:15:08;;;;;;;2.05;0.98;;;;;;;;;;4986519;28;20550;-76
2022/10/31 03:17:46;;;;;;;5.40;1.88;;;8.50;99.90;;;;;;4987181;28;20038;-77
2022/10/31 03:20:11;;;;;;;6.07;0.88;;;8.50;99.90;;;;;;4988272;28;20114;-76
2022/10/31 03:22:42;;;;;;;4.03;2.13;;;8.50;99.90;;;;;;4987550;28;20121;-77
2022/10/31 03:25:12;;;;;;;2.08;1.55;;;8.50;99.90;;;;;;4987346;28;20121;-77
2022/10/31 03:27:44;;;;;;;2.55;1.63;;;8.50;99.90;;;;;;4987549;28;20550;-76
2022/10/31 03:30:10;;;;;;;4.82;2.13;;;8.50;99.90;;;;;;4986476;28;20047;-77
2022/10/31 03:32:51;;;;;;;3.28;1.40;;;8.50;99.90;;;;;;4986878;28;20026;-77
2022/10/31 03:35:20;;;;;;;4.63;1.88;;;8.50;99.90;;;;;;4987418;28;20423;-76
2022/10/31 03:37:47;;;;;;;2.10;1.23;;;8.60;99.90;;;;;;4987416;28;20080;-77
2022/10/31 03:40:15;;;;;;;3.15;1.35;;;8.50;99.90;;;;;;4987416;28;20705;-77
2022/10/31 03:42:46;;;;;;;4.05;1.15;;;8.40;99.90;;;;;;4987711;28;20036;-77
2022/10/31 03:45:17;;;;;;;1.42;1.27;;;8.30;99.90;;;;;;4987556;28;20038;-77
2022/10/31 03:47:44;;;;;;;3.15;1.27;;;8.30;99.90;;;;;;4985480;28;20114;-76
2022/10/31 03:50:12;;;;;;;1.98;1.60;;;8.30;99.90;;;;;;4987760;28;20032;-77
2022/10/31 03:53:03;;;;;;;1.80;1.20;;;8.30;99.90;;;;;;4986399;28;20037;-76
2022/10/31 03:55:38;;;;;;;2.40;1.30;;;8.30;99.90;;;;;;4986395;28;20026;-76
2022/10/31 03:58:09;;;;;;;2.10;1.50;;;8.30;99.90;;;;;;4982214;28;20042;-77
2022/10/31 04:00:40;;;;;;;1.65;1.20;;;8.40;99.90;;;;;;4965697;28;20045;-74
2022/10/31 04:03:15;;;;;;;7.82;1.80;;;8.30;99.90;;;;;;4968585;28;20030;-75
2022/10/31 04:05:45;;;;;;;2.63;1.42;;;8.30;99.90;;;;;;4969383;28;20499;-76
2022/10/31 04:08:15;;;;;;;3.83;1.88;;;8.40;99.90;;;;;;4969339;28;20111;-77
2022/10/31 04:10:44;;;;;;;5.75;2.42;;;8.40;99.90;;;;;;4969124;28;20023;-76
2022/10/31 04:13:13;;;;;;;3.43;1.80;;;8.60;99.90;;;;;;4969388;28;20027;-75
2022/10/31 04:15:41;;;;;;;1.10;1.10;;;8.60;99.90;;;;;;4969314;28;20037;-77
2022/10/31 04:18:06;;;;;;;1.45;1.33;;;8.60;99.90;;;;;;4969676;28;20122;-76
2022/10/31 04:20:38;;;;;;;2.00;1.38;;;8.70;99.90;;;;;;4970778;28;20165;-76
2022/10/31 04:23:04;;;;;;;2.88;1.50;;;8.60;99.90;;;;;;4970693;28;20047;-75
2022/10/31 04:25:30;;;;;;;4.70;1.77;;;8.60;99.90;;;;;;4970790;28;20023;-76
2022/10/31 04:27:59;;;;;;;2.20;1.63;;;8.60;99.90;;;;;;4970572;28;20029;-76
2022/10/31 04:30:25;;;;;;;2.25;1.88;;;8.50;99.90;;;;;;4970659;28;20027;-77
2022/10/31 04:32:51;;;;;;;2.22;1.60;;;8.50;99.90;;;;;;4970506;28;20041;-76
2022/10/31 04:35:16;;;;;;;6.32;3.03;;;8.40;99.90;;;;;;4985571;28;20484;-76
2022/10/31 04:37:42;;;;;;;3.53;2.20;;;8.40;99.90;;;;;;4970694;28;20531;-76
2022/10/31 04:40:09;;;;;;;5.43;1.50;;;8.40;99.90;;;;;;4970784;28;20113;-77
2022/10/31 04:42:34;;;;;;;2.40;1.33;;;8.40;99.90;;;;;;4973932;28;20023;-77
2022/10/31 04:45:00;;;;;;;4.80;1.50;;;8.40;99.90;;;;;;4974266;28;20023;-77
2022/10/31 04:47:26;;;;;;;2.60;2.10;;;8.40;99.90;;;;;;4974279;28;20357;-76
2022/10/31 04:49:52;;;;;;;2.80;1.55;;;8.40;99.90;;;;;;4972956;28;20030;-77
2022/10/31 04:52:20;;;;;;;3.38;2.00;;;8.40;99.90;;;;;;4974095;28;20377;-76
2022/10/31 04:54:46;;;;;;;1.52;1.25;;;8.50;99.90;;;;;;4974306;28;20027;-75
2022/10/31 04:57:11;;;;;;;2.97;1.40;;;8.60;99.90;;;;;;4974158;28;20070;-76
2022/10/31 04:59:40;;;;;;;1.75;1.52;;;8.60;99.90;;;;;;4974027;28;20038;-76
2022/10/31 05:02:06;;;;;;;1.23;1.13;;;8.50;99.90;;;;;;4973685;28;20029;-76
2022/10/31 05:04:32;;;;;;;1.80;1.45;;;8.40;99.90;;;;;;4973826;28;20026;-76
2022/10/31 05:07:01;;;;;;;8.60;2.28;;;8.40;99.90;;;;;;4974240;28;20031;-76
2022/10/31 05:09:26;;;;;;;7.07;2.08;;;8.30;99.90;;;;;;4974192;28;20039;-76
2022/10/31 05:11:52;;;;;;;2.15;0.90;;;8.40;99.90;;;;;;4973790;28;20034;-77
2022/10/31 05:14:18;;;;;;;3.03;2.15;;;8.20;99.90;;;;;;4973777;28;20106;-77
2022/10/31 05:16:44;;;;;;;3.50;1.65;;;8.30;99.90;;;;;;4973600;28;20369;-76
2022/10/31 05:19:09;;;;;;;2.65;1.98;;;8.20;99.90;;;;;;4973831;28;20039;-76
2022/10/31 05:21:35;;;;;;;4.53;2.40;;;8.30;99.90;;;;;;4973367;28;20031;-76
2022/10/31 05:24:01;;;;;;;4.25;1.88;;;8.40;99.90;;;;;;4973655;28;20604;-76
2022/10/31 05:26:30;;;;;;;1.77;1.60;;;8.50;99.90;;;;;;4973565;28;20400;-76
2022/10/31 05:28:56;;;;;;;10.18;2.28;;;8.50;99.90;;;;;;4973636;28;20093;-76
2022/10/31 05:31:24;;;;;;;4.70;2.10;;;;;;;;;;4973657;28;20034;-75
2022/10/31 05:33:50;;;;;;;2.15;2.05;;;8.40;99.90;;;;;;4973880;28;20019;-76
2022/10/31 05:36:16;;;;;;;2.58;1.80;;;8.30;99.90;;;;;;4973565;28;20030;-74
2022/10/31 05:38:41;;;;;;;2.55;1.50;;;8.40;99.90;;;;;;4973649;28;20066;-75
2022/10/31 05:41:10;;;;;;;1.80;1.58;;;8.40;99.90;;;;;;4973269;28;20558;-75
2022/10/31 05:43:36;;;;;;;2.43;2.03;;;8.40;99.90;;;;;;4973194;28;20026;-75
2022/10/31 05:46:02;;;;;;;1.38;1.30;;;8.40;99.90;;;;;;4973191;28;20030;-77
2022/10/31 05:48:28;;;;;;;2.25;1.40;;;8.50;99.90;;;;;;4972873;28;20114;-75
2022/10/31 05:50:54;;;;;;;1.88;1.63;;;8.50;99.90;;;;;;4973484;28;20255;-77
2022/10/31 05:53:19;;;;;;;5.13;1.63;;;8.50;99.90;;;;;;4972131;28;20037;-76
2022/10/31 05:55:46;;;;;;;2.97;1.35;;;8.40;99.90;;;;;;4987936;28;20077;-77
2022/10/31 05:58:12;;;;;;;2.05;1.52;;;8.30;99.90;;;;;;4973015;28;20118;-77
2022/10/31 06:00:39;;;;;;;1.50;1.30;;;;;;;;;;4972854;28;20087;-78
2022/10/31 06:03:07;;;;;;;4.05;2.00;;;8.10;99.90;;;;;;4972626;28;20038;-76
2022/10/31 06:05:33;;;;;;;1.45;1.35;;;8.10;99.90;;;;;;4972939;28;20468;-76
2022/10/31 06:07:59;;;;;;;5.00;2.28;;;8.10;99.90;;;;;;4972833;28;20078;-76
2022/10/31 06:10:26;;;;;;;1.58;1.30;;;8.10;99.90;;;;;;4971259;28;20031;-76
2022/10/31 06:12:51;;;;;;;1.92;1.83;;;8.10;99.90;;;;;;4972589;28;20018;-77
2022/10/31 06:15:17;;;;;;;2.60;1.73;;;8.10;99.90;;;;;;4972604;28;20033;-77
2022/10/31 06:17:43;;;;;;;4.20;2.30;;;8.00;99.90;;;;;;4972150;28;20038;-77
2022/10/31 06:20:09;;;;;;;1.33;1.23;;;8.10;99.90;;;;;;4972524;28;20029;-77
2022/10/31 06:22:35;;;;;;;6.20;2.75;;;8.20;99.90;;;;;;4972330;28;20133;-77
2022/10/31 06:25:01;;;;;;;1.85;1.58;;;8.30;99.90;;;;;;4972405;28;20115;-77
2022/10/31 06:27:27;;;;;;;2.72;1.90;;;8.30;99.90;;;;;;4972412;28;20034;-77
2022/10/31 06:29:52;;;;;;;2.00;1.90;;;8.30;99.90;;;;;;4972497;28;20469;-77
2022/10/31 06:32:19;;;;;;;12.02;2.88;;;8.30;99.90;;;;;;4972094;28;20027;-77
2022/10/31 06:34:47;;;;;;;2.60;1.52;;;8.30;99.90;;;;;;4970936;28;20384;-77
2022/10/31 06:37:14;;;;;;;2.45;1.25;;;8.40;99.90;;;;;;4971991;28;20038;-76
2022/10/31 06:39:40;;;;;;;4.28;1.75;;;8.30;99.90;;;;;;4972334;28;20114;-76
2022/10/31 06:42:06;;;;;;;3.75;2.13;;;8.40;99.90;;;;;;4972163;28;20109;-77
2022/10/31 06:44:32;;;;;;;1.80;1.58;;;8.40;99.90;;;;;;4972052;28;20113;-76
2022/10/31 06:46:58;;;;;;;2.55;1.02;;;8.40;99.90;;;;;;4970728;28;20022;-77
2022/10/31 06:49:24;;;;;;;5.65;2.08;;;8.50;99.90;;;;;;4986996;28;20019;-78
2022/10/31 06:51:50;;;;;;;3.03;2.28;;;8.60;99.90;;;;;;4972063;28;20030;-76
2022/10/31 06:54:16;;;;;;;2.60;1.38;;;;;;;;;;4986792;28;20113;-76
2022/10/31 06:56:42;;;;;;;5.13;2.22;;;8.90;99.90;;;;;;4971788;28;20019;-75
2022/10/31 06:59:08;;;;;;;2.53;1.75;;;;;;;;;;4971837;28;20483;-77
2022/10/31 07:01:34;;;;;;;6.78;2.25;;;9.10;99.90;;;;;;4971652;28;20031;-76
2022/10/31 07:04:00;;;;;;;7.32;2.42;;;9.10;99.90;;;;;;4971665;28;20034;-76
2022/10/31 07:06:26;;;;;;;6.93;2.33;;;9.20;99.90;;;;;;4971829;28;20089;-75
2022/10/31 07:08:51;;;;;;;4.35;2.03;;;9.20;99.90;;;;;;4971734;28;20516;-76
2022/10/31 07:11:17;;;;;;;4.20;1.58;;;9.50;99.90;;;;;;4971704;28;20029;-75
2022/10/31 07:13:43;;;;;;;3.70;2.30;;;9.50;99.90;;;;;;4972076;28;20034;-77
2022/10/31 07:16:11;;;;;;;3.33;2.17;;;9.70;99.90;;;;;;4971254;28;20500;-76
2022/10/31 07:18:40;;;;;;;7.30;2.13;;;9.60;99.90;;;;;;4971586;28;20299;-74
2022/10/31 07:21:05;;;;;;;3.83;2.25;;;9.70;99.90;;;;;;4971580;28;20049;-76
2022/10/31 07:23:31;;;;;;;3.60;2.03;;;9.70;99.90;;;;;;4971382;28;20495;-75
2022/10/31 07:25:58;;;;;;;2.40;1.75;;;9.70;99.90;;;;;;4971612;28;20022;-76
2022/10/31 07:28:25;;;;;;;2.38;1.67;;;9.90;99.90;;;;;;4971337;28;20667;-76
2022/10/31 07:30:55;;;;;;;3.13;2.45;;;9.90;99.90;;;;;;4971391;28;20027;-75
2022/10/31 07:33:22;;;;;;;5.70;2.30;;;10.00;99.90;;;;;;4971331;28;20026;-75
2022/10/31 07:35:48;;;;;;;2.20;1.88;;;10.10;99.90;;;;;;4971481;28;20035;-76
2022/10/31 07:38:15;;;;;;;3.35;1.33;;;10.00;99.90;;;;;;4977325;28;20034;-74
2022/10/31 07:40:41;;;;;;;2.83;2.55;;;10.10;99.90;;;;;;4990558;28;20050;-76
2022/10/31 07:43:08;;;;;;;3.20;2.45;;;10.40;99.90;;;;;;4987095;28;20053;-74
2022/10/31 07:45:34;;;;;;;2.65;1.80;;;10.40;99.90;;;;;;4988738;28;20096;-77
2022/10/31 07:48:00;;;;;;;2.78;1.88;;;10.60;99.90;;;;;;4981693;28;20038;-75
2022/10/31 07:50:29;;;;;;;2.05;1.42;;;10.60;99.90;;;;;;4990554;28;20018;-76
2022/10/31 07:53:03;;;;;;;5.28;2.13;;;10.80;99.90;;;;;;4990874;28;20035;-75
2022/10/31 07:55:30;;;;;;;12.07;3.40;;;10.90;99.90;;;;;;4989076;28;20452;-76
2022/10/31 07:58:03;;;;;;;5.90;4.07;;;10.90;99.90;;;;;;4981606;28;20026;-76
2022/10/31 08:00:29;;;;;;;3.85;2.22;;;10.90;99.90;;;;;;4978799;28;20030;-75
2022/10/31 08:03:03;;;;;;;6.18;2.45;;;11.10;99.90;;;;;;4971164;28;20027;-76
2022/10/31 08:05:30;;;;;;;9.90;4.28;;;11.30;99.90;;;;;;4969623;28;20057;-77
2022/10/31 08:07:55;;;;;;;6.00;3.78;;;11.40;99.90;;;;;;4970885;28;20034;-76
2022/10/31 08:10:22;;;;;;;10.00;7.60;;;11.50;99.90;;;;;;4970874;28;20391;-76
2022/10/31 08:12:54;;;;;;;8.35;4.53;;;11.60;99.90;;;;;;4970853;28;20027;-74
2022/10/31 08:15:20;;;;;;;11.65;4.03;;;11.80;99.90;;;;;;4978789;28;20022;-77
2022/10/31 08:17:45;;;;;;;9.43;4.32;;;11.90;99.90;;;;;;4993659;28;20409;-77
2022/10/31 08:20:11;;;;;;;13.63;4.00;;;12.00;99.90;;;;;;4983595;28;20105;-76
2022/10/31 08:22:37;;;;;;;6.95;3.92;;;12.00;99.90;;;;;;4971637;28;20165;-78
2022/10/31 08:25:02;;;;;;;4.68;3.25;;;12.10;99.90;;;;;;4973492;28;20122;-75
2022/10/31 08:27:28;;;;;;;28.02;4.85;;;12.20;99.90;;;;;;4977997;28;20030;-76
2022/10/31 08:29:54;;;;;;;12.27;5.07;;;12.30;99.90;;;;;;4978474;28;20047;-76
2022/10/31 08:32:19;;;;;;;8.57;4.57;;;12.40;99.90;;;;;;4989136;28;20034;-78
2022/10/31 08:34:45;;;;;;;8.02;4.13;;;12.40;99.90;;;;;;4974704;28;20475;-77
2022/10/31 08:37:11;;;;;;;6.22;4.10;;;12.40;99.90;;;;;;4978459;28;20029;-74
2022/10/31 08:39:36;;;;;;;4.97;3.97;;;12.50;99.90;;;;;;4995846;28;20031;-78
2022/10/31 08:42:02;;;;;;;4.70;2.88;;;12.50;99.90;;;;;;4996721;28;20026;-79
2022/10/31 08:44:28;;;;;;;6.47;3.33;;;14.60;99.90;;;;;;4996521;28;20716;-77
2022/10/31 08:46:53;;;;;;;5.35;2.97;;;12.80;99.90;;;;;;4997343;28;20022;-78
2022/10/31 08:49:19;;;;;;;3.38;2.83;;;12.90;99.90;;;;;;4997324;28;20486;-77
2022/10/31 08:51:48;;;;;;;7.47;3.13;;;13.10;99.90;;;;;;4989842;28;20092;-77
2022/10/31 08:54:13;;;;;;;8.20;3.40;;;13.20;99.90;;;;;;4986234;28;20014;-77
2022/10/31 08:56:39;;;;;;;9.68;4.10;;;13.20;99.90;;;;;;4991576;28;20030;-78
2022/10/31 08:59:04;;;;;;;11.45;3.65;;;13.40;99.90;;;;;;4990977;28;20479;-77
2022/10/31 09:01:30;;;;;;;10.45;3.53;;;13.40;99.90;;;;;;4991410;28;20022;-77
2022/10/31 09:03:56;;;;;;;6.28;2.83;;;13.50;99.90;;;;;;4992475;28;20091;-77
2022/10/31 09:06:21;;;;;;;7.28;3.17;;;13.60;99.90;;;;;;4989455;28;20030;-76
2022/10/31 09:08:47;;;;;;;4.82;2.90;;;13.90;99.90;;;;;;4990221;28;20023;-77
2022/10/31 09:11:12;;;;;;;3.28;2.95;;;13.90;99.90;;;;;;4972629;28;20031;-76
2022/10/31 09:13:39;;;;;;;8.00;3.63;;;;;;;;;;4979971;28;20019;-79
2022/10/31 09:16:05;;;;;;;4.07;2.15;;;13.90;99.90;;;;;;4976020;28;20378;-77
2022/10/31 09:18:31;;;;;;;7.20;3.33;;;14.00;99.90;;;;;;4969007;28;20040;-77
2022/10/31 09:20:58;;;;;;;7.50;3.30;;;14.00;99.90;;;;;;4971282;28;20248;-77
2022/10/31 09:23:24;;;;;;;11.15;2.45;;;14.10;99.90;;;;;;4969785;28;20053;-77
2022/10/31 09:25:51;;;;;;;4.63;3.22;;;14.20;99.90;;;;;;4970847;28;20372;-77
2022/10/31 09:28:21;;;;;;;9.65;2.15;;;14.30;99.90;;;;;;4971047;28;20031;-76
2022/10/31 09:30:52;;;;;;;5.90;3.42;;;14.40;99.90;;;;;;4970749;28;20033;-77
2022/10/31 09:33:18;;;;;;;3.30;2.50;;;14.50;99.90;;;;;;4971388;28;20316;-76
2022/10/31 09:35:44;;;;;;;5.57;3.53;;;14.60;99.90;;;;;;4985456;28;20494;-78
2022/10/31 09:38:12;;;;;;;3.63;2.53;;;14.50;99.90;;;;;;4971092;28;20121;-78
2022/10/31 09:40:40;;;;;;;4.93;2.90;;;14.70;99.90;;;;;;4970295;28;20027;-78
2022/10/31 09:43:18;;;;;;;3.83;2.42;;;14.60;99.90;;;;;;4985330;28;20054;-77
2022/10/31 09:45:56;;;;;;;3.35;2.47;;;14.70;99.90;;;;;;4971087;28;20031;-78
2022/10/31 09:48:51;;;;;;;6.67;2.77;;;14.90;99.90;;;;;;4988474;28;20089;-77
2022/10/31 09:51:30;;;;;;;6.90;2.45;;;14.90;99.90;;;;;;4959495;28;20042;-77
2022/10/31 09:54:05;;;;;;;6.22;3.08;;;14.90;99.90;;;;;;4969170;28;20031;-77
2022/10/31 09:56:32;;;;;;;3.58;2.50;;;15.00;99.90;;;;;;4968226;28;20074;-77
2022/10/31 09:59:01;;;;;;;2.42;2.05;;;15.10;99.90;;;;;;4985135;28;20442;-77
2022/10/31 10:01:54;;;;;;;3.53;2.30;;;15.10;99.90;;;;;;4968750;28;20480;-77
2022/10/31 10:04:40;;;;;;;6.85;3.05;;;15.10;99.90;;;;;;4968867;28;20237;-78
2022/10/31 10:07:30;;;;;;;3.33;2.70;;;15.30;99.90;;;;;;4959931;28;20039;-78
2022/10/31 10:09:59;;;;;;;3.55;2.63;;;15.60;99.90;;;;;;4970712;28;20480;-77
2022/10/31 10:12:37;;;;;;;7.03;2.05;;;15.90;99.90;;;;;;4968880;28;20158;-77
2022/10/31 10:15:22;;;;;;;6.22;2.25;;;15.90;99.90;;;;;;4968335;28;20074;-78
2022/10/31 10:18:00;;;;;;;10.32;2.70;;;16.10;99.90;;;;;;4974493;28;20038;-76
2022/10/31 10:21:09;;;;;;;4.72;2.78;;;16.20;99.90;;;;;;4971142;28;20441;-75
2022/10/31 10:23:56;;;;;;;4.78;2.92;;;16.40;99.90;;;;;;4943138;28;20053;-77
2022/10/31 10:26:29;;;;;;;6.18;2.08;;;16.50;99.90;;;;;;4987327;28;20616;-76
2022/10/31 10:29:00;;;;;;;6.38;3.20;;;16.60;99.90;;;;;;4990405;28;20026;-76
2022/10/31 10:31:36;;;;;;;4.07;3.00;;;16.60;99.90;;;;;;4986219;28;20033;-76
2022/10/31 10:34:20;;;;;;;8.57;2.35;;;16.60;99.90;;;;;;4973933;28;20023;-77
2022/10/31 10:36:54;;;;;;;9.38;2.78;;;16.60;99.90;;;;;;4977785;28;20361;-78
2022/10/31 10:39:29;;;;;;;4.35;2.08;;;16.70;99.90;;;;;;4986934;28;20030;-76
2022/10/31 10:47:43;;;;;;;12.80;2.42;;;16.80;99.90;;;;;;4973527;28;20038;-76
2022/10/31 10:50:19;;;;;;;;;;;16.90;99.90;;;;;;4970721;28;20027;-77
2022/10/31 10:53:21;;;;;;;2.80;1.45;;;16.80;99.90;;;;;;4970649;28;19910;-77
2022/10/31 10:56:17;;;;;;;4.55;1.85;;;17.00;99.90;;;;;;4984518;28;20085;-76
2022/10/31 10:58:44;;;;;;;4.00;1.67;;;17.30;99.90;;;;;;4973732;28;20122;-77
2022/10/31 11:01:12;;;;;;;7.05;2.42;;;17.30;99.90;;;;;;4988566;28;20085;-75
2022/10/31 11:03:39;;;;;;;3.15;2.00;;;17.50;99.90;;;;;;4986370;28;20030;-78
2022/10/31 11:06:16;;;;;;;3.35;2.17;;;17.60;99.90;;;;;;4988026;28;20521;-77
2022/10/31 11:08:41;;;;;;;4.90;2.40;;;17.50;99.90;;;;;;4987570;28;20462;-75
2022/10/31 11:11:29;;;;;;;7.03;2.15;;;17.50;99.90;;;;;;4987840;28;20470;-79
2022/10/31 11:14:11;;;;;;;9.50;2.13;;;17.30;99.90;;;;;;4987508;28;20029;-76
2022/10/31 11:16:40;;;;;;;5.35;2.80;;;17.30;99.90;;;;;;4985345;28;20403;-77
2022/10/31 11:19:21;;;;;;;4.87;2.23;;;17.10;99.90;;;;;;4988193;28;20518;-78
2022/10/31 11:21:47;;;;;;;5.28;2.50;;;16.90;99.90;;;;;;4987912;28;20571;-76
2022/10/31 11:24:17;;;;;;;7.43;2.50;;;16.90;99.90;;;;;;4988671;28;20034;-76
2022/10/31 11:26:45;;;;;;;4.45;2.30;;;16.80;99.90;;;;;;4987576;28;20054;-76
2022/10/31 11:29:25;;;;;;;4.43;2.30;;;17.00;99.90;;;;;;4988087;28;20524;-76
2022/10/31 11:31:57;;;;;;;12.30;3.08;;;17.00;99.90;;;;;;4987785;28;20220;-76
2022/10/31 11:34:28;;;;;;;8.00;2.85;;;17.00;99.90;;;;;;4988116;28;20030;-77
2022/10/31 11:36:58;;;;;;;7.78;3.75;;;17.10;99.90;;;;;;4988889;28;20053;-77
2022/10/31 11:39:24;;;;;;;6.40;3.05;;;17.10;99.90;;;;;;4992388;28;20034;-78
2022/10/31 11:41:52;;;;;;;4.68;2.22;;;17.10;99.90;;;;;;4987358;28;20069;-78
2022/10/31 11:44:21;;;;;;;3.42;2.95;;;17.20;99.90;;;;;;4987474;28;20054;-76
2022/10/31 11:46:54;;;;;;;7.63;2.95;;;17.10;99.90;;;;;;4976888;28;20133;-76
2022/10/31 11:49:32;;;;;;;4.03;1.98;;;17.10;99.90;;;;;;4971208;28;20066;-75
2022/10/31 11:52:04;;;;;;;3.57;1.57;;;17.10;99.90;;;;;;4967337;28;20073;-77
2022/10/31 11:54:41;;;;;;;3.72;2.13;;;17.20;99.90;;;;;;4967452;28;20037;-78
2022/10/31 11:57:25;;;;;;;3.60;1.85;;;17.30;99.90;;;;;;4967955;28;20077;-78
2022/10/31 11:59:54;;;;;;;8.50;2.15;;;17.40;99.90;;;;;;4968093;28;20582;-77
2022/10/31 12:02:20;;;;;;;8.65;2.20;;;17.50;99.90;;;;;;4967925;28;20030;-75
2022/10/31 12:04:56;;;;;;;5.13;2.35;;;17.60;99.90;;;;;;4968271;28;20476;-77
2022/10/31 12:07:23;;;;;;;4.20;2.55;;;17.60;99.90;;;;;;4968278;28;20439;-77
2022/10/31 12:09:49;;;;;;;3.17;2.17;;;17.60;99.90;;;;;;4968811;28;20053;-75
2022/10/31 12:12:44;;;;;;;2.60;1.75;;;17.80;99.90;;;;;;4968137;28;20039;-75
2022/10/31 12:15:44;;;;;;;9.65;2.00;;;17.80;99.90;;;;;;4968052;28;20019;-76
2022/10/31 12:18:21;;;;;;;9.20;2.20;;;17.90;99.90;;;;;;4956607;28;20143;-78
2022/10/31 12:20:57;;;;;;;4.68;1.88;;;18.00;99.90;;;;;;4966751;28;20173;-78
2022/10/31 12:23:56;;;;;;;4.38;2.55;;;18.20;99.90;;;;;;4966027;28;20054;-77
2022/10/31 12:26:40;;;;;;;10.48;2.63;;;18.50;99.90;;;;;;4967373;28;20034;-78
2022/10/31 12:29:33;;;;;;;5.00;2.75;;;18.80;99.90;;;;;;4967607;28;20027;-77
2022/10/31 12:32:18;;;;;;;8.43;2.65;;;19.50;99.90;;;;;;4967520;28;20503;-76
2022/10/31 12:35:10;;;;;;;8.05;2.22;;;19.50;99.90;;;;;;4966181;28;20057;-77
2022/10/31 12:37:42;;;;;;;4.97;2.00;;;21.00;99.90;;;;;;4967722;28;20035;-79
2022/10/31 12:40:26;;;;;;;3.95;2.03;;;21.30;99.90;;;;;;4966842;28;20377;-79
2022/10/31 12:43:22;;;;;;;3.45;2.67;;;21.60;99.90;;;;;;4967456;28;20472;-78
2022/10/31 12:45:56;;;;;;;5.88;2.65;;;22.20;99.90;;;;;;4970259;28;20033;-80
2022/10/31 12:48:44;;;;;;;3.85;2.53;;;22.40;99.90;;;;;;4988410;28;20022;-79
2022/10/31 12:51:22;;;;;;;2.08;1.85;;;22.80;99.90;;;;;;4986064;28;20030;-78
2022/10/31 12:54:14;;;;;;;4.78;2.28;;;23.80;98.00;;;;;;4987908;28;20408;-78
2022/10/31 12:56:48;;;;;;;2.83;2.30;;;25.10;90.30;;;;;;4968260;28;20479;-78
2022/10/31 12:59:21;;;;;;;2.28;1.92;;;25.00;83.50;;;;;;4986708;28;20252;-78
2022/10/31 13:01:58;;;;;;;4.45;1.92;;;24.80;85.10;;;;;;4987517;28;20360;-80
2022/10/31 13:04:40;;;;;;;5.07;1.73;;;25.40;79.80;;;;;;4990643;28;20038;-78
2022/10/31 13:07:14;;;;;;;2.28;1.38;;;25.40;77.50;;;;;;4989407;28;20483;-79
2022/10/31 13:09:51;;;;;;;11.63;2.78;;;25.30;77.90;;;;;;4990339;28;20379;-79
2022/10/31 13:12:20;;;;;;;7.50;2.40;;;24.60;77.80;;;;;;4991504;28;20487;-78
2022/10/31 13:15:17;;;;;;;8.82;2.83;;;24.40;80.00;;;;;;4988458;28;20485;-78
2022/10/31 13:17:54;;;;;;;2.60;2.17;;;24.50;77.90;;;;;;4985576;28;20065;-78
2022/10/31 13:20:30;;;;;;;5.93;2.00;;;23.60;79.20;;;;;;4990511;28;20038;-77
2022/10/31 13:23:36;;;;;;;3.38;1.50;;;23.60;79.90;;;;;;4989998;28;20054;-78